SHT2D EGLL-EGCC
Flight info
| Callsign | SHT2D |
|---|---|
| Flight time | 0h 31m |
| Altitude | 18000 |
| Route | ULTIB1J ULTIB T420 ELVOS ELVOS1M |
| Aircraft | A320/M-SDE3FGHIJ1RWXY/S |
Departure
| Time | 2026-05-05 13:32 |
|---|---|
| Airport | London Heathrow Airport (EGLL) |
Arrival
| Time | 2026-05-05 14:03 |
|---|---|
| Airport | Manchester Airport (EGCC) |
| Time | Latitude | Longitude | Altitude | Speed | Heading |
|---|---|---|---|---|---|
| 2026-05-05 12:44 | 51.46911 | -0.48025 | 92 ft | 0 kts | 269° |
| 2026-05-05 13:20 | 51.46912 | -0.48008 | 90 ft | 4 kts | 268° |
| 2026-05-05 13:20 | 51.46913 | -0.47965 | 90 ft | 4 kts | 264° |
| 2026-05-05 13:20 | 51.46917 | -0.47922 | 89 ft | 4 kts | 256° |
| 2026-05-05 13:20 | 51.46926 | -0.47884 | 91 ft | 4 kts | 227° |
| 2026-05-05 13:21 | 51.46939 | -0.47869 | 92 ft | 0 kts | 180° |
| 2026-05-05 13:25 | 51.46923 | -0.47869 | 89 ft | 4 kts | 180° |
| 2026-05-05 13:25 | 51.46873 | -0.47869 | 89 ft | 10 kts | 180° |
| 2026-05-05 13:26 | 51.46798 | -0.47870 | 89 ft | 12 kts | 182° |
| 2026-05-05 13:26 | 51.46745 | -0.47954 | 89 ft | 13 kts | 261° |
| 2026-05-05 13:26 | 51.46737 | -0.48106 | 90 ft | 14 kts | 265° |
| 2026-05-05 13:26 | 51.46743 | -0.48256 | 94 ft | 13 kts | 272° |
| 2026-05-05 13:27 | 51.46743 | -0.48414 | 93 ft | 16 kts | 268° |
| 2026-05-05 13:27 | 51.46737 | -0.48609 | 92 ft | 19 kts | 269° |
| 2026-05-05 13:27 | 51.46677 | -0.48750 | 93 ft | 17 kts | 185° |
| 2026-05-05 13:27 | 51.46596 | -0.48768 | 92 ft | 0 kts | 193° |
| 2026-05-05 13:28 | 51.46592 | -0.48770 | 92 ft | 3 kts | 194° |
| 2026-05-05 13:29 | 51.46537 | -0.48784 | 93 ft | 12 kts | 179° |
| 2026-05-05 13:29 | 51.46478 | -0.48705 | 94 ft | 12 kts | 105° |
| 2026-05-05 13:29 | 51.46477 | -0.48655 | 93 ft | 0 kts | 90° |
| 2026-05-05 13:31 | 51.46477 | -0.48631 | 93 ft | 13 kts | 89° |
| 2026-05-05 13:31 | 51.46481 | -0.48069 | 91 ft | 86 kts | 90° |
| 2026-05-05 13:31 | 51.46491 | -0.46793 | 96 ft | 139 kts | 88° |
| 2026-05-05 13:31 | 51.46458 | -0.45093 | 372 ft | 160 kts | 96° |
| 2026-05-05 13:32 | 51.46358 | -0.43330 | 1082 ft | 157 kts | 86° |
| 2026-05-05 13:32 | 51.46479 | -0.41610 | 1668 ft | 163 kts | 67° |
| 2026-05-05 13:32 | 51.47139 | -0.39977 | 1938 ft | 185 kts | 46° |
| 2026-05-05 13:32 | 51.48044 | -0.38316 | 2261 ft | 210 kts | 48° |
| 2026-05-05 13:33 | 51.49033 | -0.36403 | 2695 ft | 235 kts | 49° |
| 2026-05-05 13:33 | 51.50093 | -0.34307 | 3413 ft | 247 kts | 50° |
| 2026-05-05 13:33 | 51.51184 | -0.32128 | 4347 ft | 253 kts | 51° |
| 2026-05-05 13:33 | 51.52250 | -0.29858 | 5274 ft | 257 kts | 60° |
| 2026-05-05 13:34 | 51.52935 | -0.27202 | 5819 ft | 264 kts | 69° |
| 2026-05-05 13:34 | 51.53628 | -0.24426 | 5977 ft | 265 kts | 57° |
| 2026-05-05 13:34 | 51.54983 | -0.22498 | 6005 ft | 264 kts | 22° |
| 2026-05-05 13:34 | 51.56777 | -0.21987 | 6006 ft | 265 kts | 0° |
| 2026-05-05 13:35 | 51.58615 | -0.22286 | 6027 ft | 267 kts | 351° |
| 2026-05-05 13:35 | 51.60432 | -0.22900 | 6029 ft | 267 kts | 348° |
| 2026-05-05 13:35 | 51.62169 | -0.23949 | 6038 ft | 268 kts | 331° |
| 2026-05-05 13:35 | 51.63719 | -0.25626 | 6033 ft | 269 kts | 327° |
| 2026-05-05 13:36 | 51.65298 | -0.27258 | 6032 ft | 269 kts | 329° |
| 2026-05-05 13:36 | 51.66897 | -0.28819 | 6032 ft | 268 kts | 330° |
| 2026-05-05 13:36 | 51.68506 | -0.30353 | 6067 ft | 271 kts | 331° |
| 2026-05-05 13:36 | 51.70138 | -0.31902 | 6858 ft | 272 kts | 330° |
| 2026-05-05 13:37 | 51.71775 | -0.33460 | 7766 ft | 275 kts | 330° |
| 2026-05-05 13:37 | 51.73430 | -0.35043 | 8635 ft | 278 kts | 330° |
| 2026-05-05 13:37 | 51.75103 | -0.36653 | 9494 ft | 282 kts | 329° |
| 2026-05-05 13:37 | 51.76806 | -0.38301 | 10175 ft | 293 kts | 329° |
| 2026-05-05 13:38 | 51.78624 | -0.40060 | 10397 ft | 315 kts | 329° |
| 2026-05-05 13:38 | 51.80542 | -0.41918 | 10904 ft | 326 kts | 329° |
| 2026-05-05 13:38 | 51.82501 | -0.43816 | 11612 ft | 330 kts | 329° |
| 2026-05-05 13:38 | 51.84485 | -0.45742 | 12325 ft | 334 kts | 329° |
| 2026-05-05 13:39 | 51.86487 | -0.47687 | 13030 ft | 338 kts | 329° |
| 2026-05-05 13:39 | 51.88492 | -0.49636 | 13722 ft | 343 kts | 329° |
| 2026-05-05 13:39 | 51.90544 | -0.51629 | 14361 ft | 346 kts | 329° |
| 2026-05-05 13:39 | 51.92623 | -0.53650 | 14987 ft | 350 kts | 329° |
| 2026-05-05 13:40 | 51.94720 | -0.55692 | 15616 ft | 353 kts | 328° |
| 2026-05-05 13:40 | 51.96836 | -0.57759 | 16233 ft | 357 kts | 328° |
| 2026-05-05 13:40 | 51.98966 | -0.59848 | 16853 ft | 360 kts | 328° |
| 2026-05-05 13:40 | 52.01120 | -0.61963 | 17480 ft | 364 kts | 328° |
| 2026-05-05 13:41 | 52.03298 | -0.64102 | 17881 ft | 367 kts | 328° |
| 2026-05-05 13:41 | 52.05507 | -0.66269 | 17967 ft | 380 kts | 328° |
| 2026-05-05 13:41 | 52.07812 | -0.68530 | 17974 ft | 392 kts | 328° |
| 2026-05-05 13:41 | 52.10155 | -0.70831 | 17972 ft | 395 kts | 327° |
| 2026-05-05 13:42 | 52.12514 | -0.73150 | 17971 ft | 396 kts | 328° |
| 2026-05-05 13:42 | 52.14867 | -0.75468 | 17977 ft | 396 kts | 327° |
| 2026-05-05 13:42 | 52.17222 | -0.77793 | 17975 ft | 396 kts | 328° |
| 2026-05-05 13:42 | 52.19574 | -0.80122 | 17978 ft | 395 kts | 327° |
| 2026-05-05 13:43 | 52.21926 | -0.82452 | 17975 ft | 395 kts | 327° |
| 2026-05-05 13:43 | 52.24274 | -0.84777 | 17981 ft | 395 kts | 327° |
| 2026-05-05 13:43 | 52.26626 | -0.87107 | 17971 ft | 395 kts | 327° |
| 2026-05-05 13:43 | 52.28977 | -0.89442 | 17984 ft | 395 kts | 327° |
| 2026-05-05 13:44 | 52.31323 | -0.91776 | 17995 ft | 395 kts | 327° |
| 2026-05-05 13:44 | 52.33670 | -0.94112 | 17996 ft | 395 kts | 327° |
| 2026-05-05 13:44 | 52.36011 | -0.96447 | 18001 ft | 394 kts | 327° |
| 2026-05-05 13:44 | 52.38359 | -0.98792 | 17999 ft | 394 kts | 327° |
| 2026-05-05 13:45 | 52.40701 | -1.01132 | 18005 ft | 394 kts | 327° |
| 2026-05-05 13:45 | 52.43040 | -1.03472 | 18016 ft | 394 kts | 327° |
| 2026-05-05 13:45 | 52.45375 | -1.05813 | 18012 ft | 394 kts | 327° |
| 2026-05-05 13:45 | 52.47711 | -1.08161 | 18025 ft | 393 kts | 327° |
| 2026-05-05 13:46 | 52.50043 | -1.10501 | 18033 ft | 393 kts | 327° |
| 2026-05-05 13:46 | 52.52348 | -1.12814 | 18040 ft | 393 kts | 327° |
| 2026-05-05 13:46 | 52.54710 | -1.15190 | 18042 ft | 393 kts | 326° |
| 2026-05-05 13:46 | 52.57037 | -1.17535 | 18045 ft | 392 kts | 326° |
| 2026-05-05 13:47 | 52.59362 | -1.19877 | 18048 ft | 392 kts | 326° |
| 2026-05-05 13:47 | 52.61683 | -1.22219 | 18048 ft | 391 kts | 326° |
| 2026-05-05 13:47 | 52.64004 | -1.24564 | 18049 ft | 391 kts | 326° |
| 2026-05-05 13:47 | 52.66317 | -1.26910 | 18054 ft | 391 kts | 326° |
| 2026-05-05 13:48 | 52.68602 | -1.29234 | 18049 ft | 391 kts | 326° |
| 2026-05-05 13:48 | 52.70913 | -1.31586 | 18054 ft | 391 kts | 326° |
| 2026-05-05 13:48 | 52.73227 | -1.33945 | 18049 ft | 391 kts | 326° |
| 2026-05-05 13:48 | 52.75538 | -1.36301 | 18017 ft | 391 kts | 326° |
| 2026-05-05 13:49 | 52.77851 | -1.38660 | 18029 ft | 391 kts | 326° |
| 2026-05-05 13:49 | 52.80160 | -1.41018 | 18026 ft | 391 kts | 326° |
| 2026-05-05 13:49 | 52.82473 | -1.43384 | 18014 ft | 390 kts | 326° |
| 2026-05-05 13:49 | 52.84732 | -1.45692 | 17932 ft | 374 kts | 326° |
| 2026-05-05 13:50 | 52.86907 | -1.47912 | 17749 ft | 361 kts | 326° |
| 2026-05-05 13:50 | 52.89024 | -1.50079 | 17338 ft | 355 kts | 325° |
| 2026-05-05 13:50 | 52.91114 | -1.52231 | 16860 ft | 352 kts | 325° |
| 2026-05-05 13:50 | 52.93187 | -1.54369 | 16363 ft | 350 kts | 326° |
| 2026-05-05 13:51 | 52.95241 | -1.56487 | 16012 ft | 344 kts | 326° |
| 2026-05-05 13:51 | 52.97235 | -1.58538 | 15883 ft | 332 kts | 326° |
| 2026-05-05 13:51 | 52.99161 | -1.60522 | 15753 ft | 320 kts | 326° |
| 2026-05-05 13:51 | 53.01025 | -1.62443 | 15619 ft | 311 kts | 326° |
| 2026-05-05 13:52 | 53.02849 | -1.64330 | 15332 ft | 307 kts | 326° |
| 2026-05-05 13:52 | 53.04639 | -1.66235 | 15006 ft | 304 kts | 321° |
| 2026-05-05 13:52 | 53.06206 | -1.68546 | 14664 ft | 300 kts | 310° |
| 2026-05-05 13:52 | 53.07559 | -1.71178 | 14332 ft | 299 kts | 309° |
| 2026-05-05 13:53 | 53.08907 | -1.73805 | 13963 ft | 299 kts | 309° |
| 2026-05-05 13:53 | 53.10270 | -1.76446 | 13444 ft | 303 kts | 309° |
| 2026-05-05 13:53 | 53.11650 | -1.79112 | 12913 ft | 306 kts | 309° |
| 2026-05-05 13:53 | 53.13045 | -1.81812 | 12389 ft | 309 kts | 309° |
| 2026-05-05 13:54 | 53.14450 | -1.84538 | 11873 ft | 311 kts | 309° |
| 2026-05-05 13:54 | 53.15864 | -1.87287 | 11373 ft | 313 kts | 309° |
| 2026-05-05 13:54 | 53.17280 | -1.90043 | 10875 ft | 314 kts | 309° |
| 2026-05-05 13:54 | 53.18699 | -1.92810 | 10386 ft | 315 kts | 309° |
| 2026-05-05 13:55 | 53.20120 | -1.95584 | 9902 ft | 315 kts | 309° |
| 2026-05-05 13:55 | 53.21545 | -1.98370 | 9357 ft | 315 kts | 310° |
| 2026-05-05 13:55 | 53.22910 | -2.01236 | 8837 ft | 315 kts | 301° |
| 2026-05-05 13:55 | 53.23671 | -2.04635 | 8317 ft | 313 kts | 279° |
| 2026-05-05 13:56 | 53.23732 | -2.07001 | 7989 ft | 304 kts | 268° |
| 2026-05-05 13:56 | 53.23612 | -2.10459 | 7488 ft | 293 kts | 268° |
| 2026-05-05 13:56 | 53.23490 | -2.13801 | 6983 ft | 285 kts | 267° |
| 2026-05-05 13:56 | 53.23367 | -2.17118 | 6495 ft | 286 kts | 267° |
| 2026-05-05 13:57 | 53.23243 | -2.20384 | 5971 ft | 278 kts | 267° |
| 2026-05-05 13:57 | 53.23123 | -2.23567 | 5450 ft | 272 kts | 268° |
| 2026-05-05 13:57 | 53.23005 | -2.26680 | 4934 ft | 266 kts | 268° |
| 2026-05-05 13:57 | 53.22890 | -2.29724 | 4412 ft | 261 kts | 268° |
| 2026-05-05 13:58 | 53.22775 | -2.32732 | 3889 ft | 258 kts | 269° |
| 2026-05-05 13:58 | 53.22661 | -2.35698 | 3375 ft | 254 kts | 269° |
| 2026-05-05 13:58 | 53.22549 | -2.38602 | 3032 ft | 243 kts | 269° |
| 2026-05-05 13:58 | 53.22442 | -2.41363 | 3004 ft | 238 kts | 269° |
| 2026-05-05 13:59 | 53.23762 | -2.45910 | 2707 ft | 229 kts | 339° |
| 2026-05-05 13:59 | 53.25290 | -2.46076 | 2540 ft | 225 kts | 18° |
| 2026-05-05 14:00 | 53.27503 | -2.42812 | 2044 ft | 202 kts | 49° |
| 2026-05-05 14:00 | 53.28353 | -2.41052 | 1774 ft | 189 kts | 48° |
| 2026-05-05 14:00 | 53.29152 | -2.39401 | 1510 ft | 177 kts | 49° |
| 2026-05-05 14:00 | 53.29898 | -2.37863 | 1268 ft | 162 kts | 48° |
| 2026-05-05 14:01 | 53.30582 | -2.36456 | 1055 ft | 150 kts | 47° |
| 2026-05-05 14:01 | 53.31213 | -2.35156 | 858 ft | 140 kts | 49° |
| 2026-05-05 14:01 | 53.31824 | -2.33898 | 670 ft | 139 kts | 48° |
| 2026-05-05 14:01 | 53.32431 | -2.32649 | 479 ft | 141 kts | 48° |
| 2026-05-05 14:02 | 53.33045 | -2.31381 | 291 ft | 140 kts | 48° |
| 2026-05-05 14:02 | 53.33641 | -2.30204 | 232 ft | 106 kts | 50° |
| 2026-05-05 14:02 | 53.34006 | -2.29431 | 229 ft | 78 kts | 50° |
| 2026-05-05 14:02 | 53.34296 | -2.28831 | 227 ft | 58 kts | 51° |
| 2026-05-05 14:03 | 53.34496 | -2.28517 | 227 ft | 23 kts | 12° |
| 2026-05-05 14:03 | 53.34649 | -2.28440 | 230 ft | 23 kts | 20° |
| 2026-05-05 14:03 | 53.34772 | -2.28272 | 231 ft | 24 kts | 50° |
| 2026-05-05 14:03 | 53.34881 | -2.28052 | 229 ft | 25 kts | 50° |
| 2026-05-05 14:04 | 53.34898 | -2.28018 | 229 ft | 0 kts | 50° |
| 2026-05-05 14:05 | 53.34923 | -2.27967 | 230 ft | 15 kts | 51° |
| 2026-05-05 14:05 | 53.35018 | -2.27772 | 229 ft | 24 kts | 51° |
| 2026-05-05 14:06 | 53.35121 | -2.27556 | 235 ft | 24 kts | 52° |
| 2026-05-05 14:06 | 53.35227 | -2.27336 | 238 ft | 24 kts | 51° |
| 2026-05-05 14:06 | 53.35343 | -2.27192 | 244 ft | 4 kts | 0° |
| 2026-05-05 14:07 | 53.35344 | -2.27192 | 244 ft | 1 kts | 0° |
| 2026-05-05 14:07 | 53.35396 | -2.27221 | 246 ft | 15 kts | 326° |
| 2026-05-05 14:07 | 53.35480 | -2.27335 | 248 ft | 16 kts | 321° |
| 2026-05-05 14:08 | 53.35546 | -2.27424 | 246 ft | 0 kts | 321° |
| 2026-05-05 14:09 | 53.35561 | -2.27444 | 246 ft | 9 kts | 321° |
| 2026-05-05 14:09 | 53.35624 | -2.27530 | 246 ft | 13 kts | 321° |
| 2026-05-05 14:10 | 53.35700 | -2.27622 | 247 ft | 14 kts | 333° |
| 2026-05-05 14:10 | 53.35786 | -2.27689 | 251 ft | 13 kts | 323° |
| 2026-05-05 14:10 | 53.35852 | -2.27810 | 253 ft | 14 kts | 311° |
| 2026-05-05 14:10 | 53.35943 | -2.27859 | 255 ft | 15 kts | 346° |
| 2026-05-05 14:11 | 53.36032 | -2.27965 | 255 ft | 17 kts | 317° |
| 2026-05-05 14:11 | 53.36127 | -2.28105 | 255 ft | 19 kts | 315° |
| 2026-05-05 14:11 | 53.36227 | -2.28275 | 255 ft | 22 kts | 314° |
| 2026-05-05 14:11 | 53.36311 | -2.28417 | 255 ft | 0 kts | 315° |
| 2026-05-05 14:14 | 53.36312 | -2.28419 | 255 ft | 2 kts | 315° |
| 2026-05-05 14:14 | 53.36338 | -2.28457 | 255 ft | 7 kts | 325° |
| 2026-05-05 14:14 | 53.36388 | -2.28457 | 255 ft | 9 kts | 36° |
| 2026-05-05 14:14 | 53.36416 | -2.28417 | 255 ft | 0 kts | 39° |
| 2026-05-05 14:15 | 53.36430 | -2.28420 | 255 ft | 5 kts | 340° |
| 2026-05-05 14:15 | 53.36438 | -2.28503 | 255 ft | 9 kts | 284° |
| 2026-05-05 14:15 | 53.36483 | -2.28600 | 255 ft | 12 kts | 313° |
| 2026-05-05 14:15 | 53.36550 | -2.28713 | 255 ft | 15 kts | 315° |
| 2026-05-05 14:16 | 53.36643 | -2.28772 | 255 ft | 16 kts | 11° |
| 2026-05-05 14:16 | 53.36736 | -2.28659 | 255 ft | 18 kts | 44° |
| 2026-05-05 14:16 | 53.36784 | -2.28591 | 255 ft | 5 kts | 1° |
| 2026-05-05 14:16 | 53.36809 | -2.28615 | 255 ft | 0 kts | 322° |
| 2026-05-05 14:17 | 53.36813 | -2.28620 | 255 ft | 2 kts | 322° |
| 2026-05-05 14:17 | 53.36816 | -2.28624 | 255 ft | 1 kts | 320° |
| 2026-05-05 14:17 | 53.36821 | -2.28632 | 255 ft | 1 kts | 317° |